This is the latest recevied weather packets stored in our database for station/object NA9VY-8. If no packets are shown the sender has not sent any weather packets the latest 10 day(s).
| Time | Temp. | Humidity | Pressure | Rain* | Wind** | Luminosity | Snow |
|---|---|---|---|---|---|---|---|
| 1777749536 | 12.22° C | 44% | 1022.5 hPa | 0 mm | - | 212 W/m² | - |
| 1777749234 | 12.22° C | 49% | 1022.7 hPa | 0 mm | - | 213 W/m² | - |
| 1777748931 | 11.67° C | 53% | 1022.7 hPa | 0 mm | - | 150 W/m² | - |
| 1777748324 | 11.67° C | 50% | 1022.8 hPa | 0 mm | - | 133 W/m² | - |
| 1777747717 | 12.78° C | 48% | 1022.9 hPa | 0 mm | - | 225 W/m² | - |
| 1777744987 | 11.11° C | 56% | 1023.5 hPa | 0 mm | - | 202 W/m² | - |
| 1777744074 | 11.11° C | 57% | 1023.8 hPa | 0 mm | - | 254 W/m² | - |
| 1777742863 | 11.67° C | 56% | 1023.9 hPa | 0 mm | - | 125 W/m² | - |
| 1777742254 | 11.11° C | 56% | 1024.1 hPa | 0 mm | - | 186 W/m² | - |
| 1777741649 | 11.11° C | 56% | 1024.1 hPa | 0 mm | - | 335 W/m² | - |
| 1777741041 | 10.56° C | 62% | 1024.5 hPa | 0 mm | - | 196 W/m² | - |
| 1777739828 | 10.56° C | 56% | 1024.4 hPa | 0 mm | - | 155 W/m² | - |
| 1777739525 | 10.56° C | 58% | 1024.5 hPa | 0 mm | - | 148 W/m² | - |
| 1777739222 | 11.11° C | 54% | 1024.6 hPa | 0 mm | - | 456 W/m² | - |
| 1777738616 | 10.56° C | 56% | 1024.7 hPa | 0 mm | - | 511 W/m² | - |
| 1777738011 | 10.56° C | 56% | 1024.8 hPa | 0 mm | - | 177 W/m² | - |
| 1777736177 | 9.44° C | 58% | 1025.3 hPa | 0 mm | - | 790 W/m² | - |
| 1777735874 | 9.44° C | 55% | 1025.3 hPa | 0 mm | - | 716 W/m² | - |
| 1777735572 | 10° C | 56% | 1025.4 hPa | 0 mm | - | 688 W/m² | - |
| 1777735269 | 8.33° C | 60% | 1025.4 hPa | 0 mm | - | 717 W/m² | - |
| 1777734966 | 7.78° C | 60% | 1025.7 hPa | 0 mm | - | 159 W/m² | - |
| 1777734663 | 7.78° C | 59% | 1025.5 hPa | 0 mm | - | 152 W/m² | - |
| 1777734360 | 7.78° C | 62% | 1025.5 hPa | 0 mm | - | 150 W/m² | - |
| 1777734056 | 7.78° C | 59% | 1025.7 hPa | 0 mm | - | 120 W/m² | - |
| 1777733753 | 7.78° C | 58% | 1025.5 hPa | 0 mm | - | 91 W/m² | - |
* Rain latest hour (hover to see other rain measurements)
** Current wind speed in m/s (hover to see current wind gust speed)